KBIH/BIH METAR and TAF weather

Enter ICAO airport designator
Station Type Date Time Source
KBIH METAR 2018/04/27 00:56 UTC NOAA

KBIH 270056Z AUTO 18017G21KT 10SM CLR 29/M08 A2987 RMK AO2 SLP070 T02941083


Station Type Date Time Source
KBIH Decoded METAR 2018/04/27 00:56 UTC NOAA

BISHOP AIRPORT, CA, United States (KBIH) 37-22N 118-22W 1253M
Apr 26, 2018 - 08:56 PM EDT / 2018.04.27 0056 UTC
Wind: from the S (180 degrees) at 20 MPH (17 KT) gusting to 24 MPH (21 KT):0
Visibility: 10 mile(s):0
Sky conditions: clear
Temperature: 84.9 F (29.4 C)
Dew Point: 17.1 F (-8.3 C)
Relative Humidity: 7%
Pressure (altimeter): 29.87 in. Hg (1011 hPa)
ob: KBIH 270056Z AUTO 18017G21KT 10SM CLR 29/M08 A2987 RMK AO2 SLP070 T02941083
cycle: 1

Station Type Date Time Source
KBIH TAF 2018/04/26 18:22 UTC NOAA

TAF KBIH 261720Z 2618/2718 16011G20KT P6SM FEW150
FM262000 17018G25KT P6SM SCT150
FM270300 33005KT P6SM BKN150
FM271700 15007KT P6SM SCT200


Example: see airport list